TAM3094 SBFZ-SBTE
Flight info
| Callsign | TAM3094 |
|---|---|
| Flight time | 0h 49m |
| Altitude | 32000 |
| Route | PUBOR UZ66 TNA |
| Aircraft | A319/M-SDE3FGHIRWY/LB1 |
Departure
| Time | 2026-04-26 16:53 |
|---|---|
| Airport | Pinto Martins International Airport (SBFZ) |
Arrival
| Time | 2026-04-26 17:42 |
|---|---|
| Airport | Senador Petrônio Portela Airport (SBTE) |
| Time | Latitude | Longitude | Altitude | Speed | Heading |
|---|---|---|---|---|---|
| 2026-04-26 16:42 | -3.77816 | -38.53486 | 81 ft | 0 kts | 194° |
| 2026-04-26 16:46 | -3.77811 | -38.53484 | 86 ft | 2 kts | 194° |
| 2026-04-26 16:46 | -3.77795 | -38.53480 | 82 ft | 2 kts | 194° |
| 2026-04-26 16:47 | -3.77779 | -38.53477 | 83 ft | 2 kts | 194° |
| 2026-04-26 16:47 | -3.77764 | -38.53473 | 86 ft | 2 kts | 194° |
| 2026-04-26 16:47 | -3.77748 | -38.53469 | 86 ft | 2 kts | 207° |
| 2026-04-26 16:47 | -3.77735 | -38.53459 | 84 ft | 2 kts | 254° |
| 2026-04-26 16:48 | -3.77735 | -38.53443 | 82 ft | 2 kts | 286° |
| 2026-04-26 16:48 | -3.77735 | -38.53441 | 83 ft | 0 kts | 286° |
| 2026-04-26 16:49 | -3.77733 | -38.53449 | 84 ft | 4 kts | 285° |
| 2026-04-26 16:49 | -3.77721 | -38.53492 | 83 ft | 9 kts | 284° |
| 2026-04-26 16:50 | -3.77700 | -38.53574 | 82 ft | 15 kts | 285° |
| 2026-04-26 16:50 | -3.77673 | -38.53678 | 83 ft | 16 kts | 286° |
| 2026-04-26 16:50 | -3.77642 | -38.53791 | 84 ft | 17 kts | 284° |
| 2026-04-26 16:50 | -3.77608 | -38.53910 | 89 ft | 19 kts | 285° |
| 2026-04-26 16:51 | -3.77572 | -38.54042 | 86 ft | 20 kts | 285° |
| 2026-04-26 16:51 | -3.77535 | -38.54178 | 89 ft | 21 kts | 284° |
| 2026-04-26 16:51 | -3.77502 | -38.54308 | 89 ft | 17 kts | 283° |
| 2026-04-26 16:51 | -3.77433 | -38.54378 | 89 ft | 17 kts | 5° |
| 2026-04-26 16:52 | -3.77349 | -38.54336 | 92 ft | 6 kts | 89° |
| 2026-04-26 16:52 | -3.77350 | -38.54305 | 90 ft | 9 kts | 92° |
| 2026-04-26 16:52 | -3.77358 | -38.54275 | 92 ft | 9 kts | 107° |
| 2026-04-26 16:52 | -3.77432 | -38.53995 | 88 ft | 75 kts | 105° |
| 2026-04-26 16:53 | -3.77623 | -38.53286 | 79 ft | 133 kts | 105° |
| 2026-04-26 16:53 | -3.77888 | -38.52323 | 420 ft | 145 kts | 105° |
| 2026-04-26 16:53 | -3.78164 | -38.51340 | 1027 ft | 151 kts | 107° |
| 2026-04-26 16:53 | -3.78472 | -38.50255 | 1344 ft | 172 kts | 105° |
| 2026-04-26 16:54 | -3.78815 | -38.49041 | 1623 ft | 195 kts | 107° |
| 2026-04-26 16:54 | -3.79217 | -38.47634 | 2039 ft | 223 kts | 108° |
| 2026-04-26 16:54 | -3.80082 | -38.46275 | 2536 ft | 247 kts | 143° |
| 2026-04-26 16:54 | -3.81719 | -38.45714 | 3343 ft | 258 kts | 178° |
| 2026-04-26 16:55 | -3.83517 | -38.45937 | 4231 ft | 263 kts | 192° |
| 2026-04-26 16:55 | -3.85303 | -38.46434 | 5128 ft | 268 kts | 196° |
| 2026-04-26 16:55 | -3.87102 | -38.46975 | 5989 ft | 272 kts | 194° |
| 2026-04-26 16:55 | -3.88942 | -38.47479 | 6805 ft | 276 kts | 193° |
| 2026-04-26 16:56 | -3.92715 | -38.48332 | 8818 ft | 286 kts | 190° |
| 2026-04-26 16:56 | -3.94690 | -38.48753 | 9773 ft | 293 kts | 196° |
| 2026-04-26 16:56 | -3.96451 | -38.49798 | 10481 ft | 301 kts | 226° |
| 2026-04-26 16:57 | -3.97455 | -38.51643 | 11168 ft | 309 kts | 253° |
| 2026-04-26 16:57 | -3.97958 | -38.53832 | 11388 ft | 332 kts | 258° |
| 2026-04-26 16:57 | -3.98823 | -38.58486 | 12471 ft | 347 kts | 259° |
| 2026-04-26 16:58 | -3.99253 | -38.60875 | 13129 ft | 350 kts | 259° |
| 2026-04-26 16:58 | -3.99402 | -38.61685 | 13353 ft | 351 kts | 259° |
| 2026-04-26 16:58 | -4.00630 | -38.68170 | 14878 ft | 360 kts | 258° |
| 2026-04-26 16:59 | -4.01105 | -38.70614 | 15408 ft | 363 kts | 258° |
| 2026-04-26 16:59 | -4.02086 | -38.75632 | 16504 ft | 370 kts | 258° |
| 2026-04-26 17:00 | -4.03082 | -38.80757 | 17644 ft | 378 kts | 258° |
| 2026-04-26 17:00 | -4.04097 | -38.85983 | 18652 ft | 384 kts | 259° |
| 2026-04-26 17:00 | -4.04601 | -38.88587 | 19117 ft | 387 kts | 259° |
| 2026-04-26 17:01 | -4.05117 | -38.91254 | 19579 ft | 390 kts | 259° |
| 2026-04-26 17:01 | -4.05600 | -38.93939 | 20072 ft | 392 kts | 261° |
| 2026-04-26 17:01 | -4.05996 | -38.96652 | 20557 ft | 394 kts | 263° |
| 2026-04-26 17:01 | -4.06341 | -38.99390 | 21018 ft | 397 kts | 263° |
| 2026-04-26 17:02 | -4.06555 | -39.01212 | 21323 ft | 398 kts | 264° |
| 2026-04-26 17:02 | -4.06983 | -39.04887 | 21914 ft | 402 kts | 264° |
| 2026-04-26 17:02 | -4.07321 | -39.07675 | 22361 ft | 404 kts | 263° |
| 2026-04-26 17:02 | -4.07678 | -39.10475 | 22808 ft | 407 kts | 264° |
| 2026-04-26 17:03 | -4.08047 | -39.13294 | 23244 ft | 409 kts | 263° |
| 2026-04-26 17:03 | -4.08298 | -39.15179 | 23517 ft | 411 kts | 263° |
| 2026-04-26 17:03 | -4.08680 | -39.18032 | 23850 ft | 414 kts | 263° |
| 2026-04-26 17:03 | -4.09064 | -39.20910 | 24182 ft | 417 kts | 263° |
| 2026-04-26 17:04 | -4.09448 | -39.23794 | 24497 ft | 420 kts | 263° |
| 2026-04-26 17:04 | -4.09831 | -39.26686 | 24803 ft | 423 kts | 263° |
| 2026-04-26 17:04 | -4.10218 | -39.29625 | 25127 ft | 426 kts | 263° |
| 2026-04-26 17:04 | -4.10606 | -39.32578 | 25451 ft | 428 kts | 263° |
| 2026-04-26 17:05 | -4.10995 | -39.35545 | 25763 ft | 431 kts | 263° |
| 2026-04-26 17:05 | -4.11389 | -39.38546 | 26061 ft | 434 kts | 263° |
| 2026-04-26 17:05 | -4.11786 | -39.41560 | 26374 ft | 437 kts | 263° |
| 2026-04-26 17:05 | -4.12186 | -39.44595 | 26701 ft | 439 kts | 263° |
| 2026-04-26 17:06 | -4.12580 | -39.47604 | 26970 ft | 443 kts | 263° |
| 2026-04-26 17:06 | -4.12982 | -39.50681 | 27254 ft | 447 kts | 263° |
| 2026-04-26 17:06 | -4.13385 | -39.53778 | 27557 ft | 449 kts | 263° |
| 2026-04-26 17:06 | -4.13792 | -39.56894 | 27864 ft | 451 kts | 262° |
| 2026-04-26 17:07 | -4.14202 | -39.60021 | 28171 ft | 454 kts | 262° |
| 2026-04-26 17:07 | -4.14615 | -39.63165 | 28486 ft | 456 kts | 262° |
| 2026-04-26 17:07 | -4.15030 | -39.66324 | 28791 ft | 458 kts | 262° |
| 2026-04-26 17:07 | -4.15446 | -39.69501 | 29092 ft | 460 kts | 262° |
| 2026-04-26 17:08 | -4.15862 | -39.72691 | 29387 ft | 463 kts | 262° |
| 2026-04-26 17:08 | -4.16273 | -39.75862 | 29675 ft | 466 kts | 262° |
| 2026-04-26 17:08 | -4.16692 | -39.79090 | 29959 ft | 468 kts | 262° |
| 2026-04-26 17:08 | -4.17119 | -39.82331 | 30230 ft | 470 kts | 261° |
| 2026-04-26 17:09 | -4.17843 | -39.85520 | 30495 ft | 470 kts | 252° |
| 2026-04-26 17:09 | -4.18479 | -39.87600 | 30659 ft | 471 kts | 252° |
| 2026-04-26 17:09 | -4.19758 | -39.91821 | 30991 ft | 474 kts | 252° |
| 2026-04-26 17:09 | -4.20713 | -39.94994 | 31236 ft | 476 kts | 252° |
| 2026-04-26 17:10 | -4.21665 | -39.98174 | 31482 ft | 478 kts | 252° |
| 2026-04-26 17:10 | -4.22609 | -40.01331 | 31779 ft | 478 kts | 252° |
| 2026-04-26 17:10 | -4.23564 | -40.04537 | 31898 ft | 476 kts | 252° |
| 2026-04-26 17:10 | -4.24499 | -40.07669 | 31927 ft | 462 kts | 252° |
| 2026-04-26 17:11 | -4.25409 | -40.10705 | 31923 ft | 449 kts | 252° |
| 2026-04-26 17:11 | -4.26307 | -40.13688 | 31920 ft | 444 kts | 252° |
| 2026-04-26 17:11 | -4.28072 | -40.19551 | 31920 ft | 441 kts | 252° |
| 2026-04-26 17:12 | -4.30717 | -40.28381 | 31923 ft | 439 kts | 252° |
| 2026-04-26 17:13 | -4.33332 | -40.37151 | 31922 ft | 438 kts | 252° |
| 2026-04-26 17:14 | -4.35968 | -40.45928 | 31915 ft | 438 kts | 252° |
| 2026-04-26 17:14 | -4.38586 | -40.54691 | 31915 ft | 438 kts | 252° |
| 2026-04-26 17:15 | -4.41212 | -40.63450 | 31918 ft | 438 kts | 252° |
| 2026-04-26 17:16 | -4.42969 | -40.69317 | 31927 ft | 438 kts | 252° |
| 2026-04-26 17:16 | -4.44699 | -40.75135 | 31928 ft | 438 kts | 252° |
| 2026-04-26 17:17 | -4.46448 | -40.81003 | 31926 ft | 439 kts | 252° |
| 2026-04-26 17:17 | -4.48203 | -40.86879 | 31928 ft | 439 kts | 252° |
| 2026-04-26 17:18 | -4.49946 | -40.92710 | 31929 ft | 439 kts | 252° |
| 2026-04-26 17:18 | -4.51455 | -40.98654 | 31928 ft | 439 kts | 257° |
| 2026-04-26 17:19 | -4.53238 | -41.07675 | 31365 ft | 440 kts | 258° |
| 2026-04-26 17:19 | -4.53808 | -41.10644 | 30912 ft | 439 kts | 258° |
| 2026-04-26 17:19 | -4.54392 | -41.13637 | 30461 ft | 437 kts | 258° |
| 2026-04-26 17:20 | -4.54984 | -41.16617 | 30020 ft | 435 kts | 258° |
| 2026-04-26 17:20 | -4.55385 | -41.18620 | 29672 ft | 433 kts | 258° |
| 2026-04-26 17:20 | -4.56170 | -41.22521 | 29114 ft | 428 kts | 258° |
| 2026-04-26 17:20 | -4.56759 | -41.25440 | 28690 ft | 424 kts | 258° |
| 2026-04-26 17:21 | -4.57340 | -41.28327 | 28278 ft | 420 kts | 258° |
| 2026-04-26 17:21 | -4.57914 | -41.31192 | 27875 ft | 417 kts | 258° |
| 2026-04-26 17:21 | -4.58477 | -41.34003 | 27467 ft | 415 kts | 258° |
| 2026-04-26 17:21 | -4.59046 | -41.36836 | 27054 ft | 413 kts | 258° |
| 2026-04-26 17:22 | -4.59616 | -41.39664 | 26643 ft | 412 kts | 258° |
| 2026-04-26 17:22 | -4.60181 | -41.42475 | 26217 ft | 410 kts | 258° |
| 2026-04-26 17:22 | -4.60740 | -41.45275 | 25796 ft | 409 kts | 258° |
| 2026-04-26 17:22 | -4.61293 | -41.48069 | 25358 ft | 408 kts | 259° |
| 2026-04-26 17:23 | -4.61842 | -41.50822 | 24928 ft | 407 kts | 258° |
| 2026-04-26 17:23 | -4.62398 | -41.53604 | 24477 ft | 406 kts | 259° |
| 2026-04-26 17:23 | -4.62953 | -41.56385 | 24021 ft | 406 kts | 259° |
| 2026-04-26 17:23 | -4.63508 | -41.59160 | 23568 ft | 405 kts | 259° |
| 2026-04-26 17:24 | -4.64062 | -41.61927 | 23054 ft | 404 kts | 259° |
| 2026-04-26 17:24 | -4.64612 | -41.64681 | 22598 ft | 401 kts | 259° |
| 2026-04-26 17:24 | -4.65159 | -41.67416 | 22142 ft | 398 kts | 259° |
| 2026-04-26 17:24 | -4.65702 | -41.70120 | 21694 ft | 394 kts | 259° |
| 2026-04-26 17:25 | -4.66237 | -41.72798 | 21240 ft | 391 kts | 259° |
| 2026-04-26 17:25 | -4.66767 | -41.75453 | 20833 ft | 386 kts | 259° |
| 2026-04-26 17:25 | -4.67287 | -41.78060 | 20365 ft | 383 kts | 259° |
| 2026-04-26 17:25 | -4.67809 | -41.80682 | 19910 ft | 381 kts | 259° |
| 2026-04-26 17:26 | -4.68323 | -41.83268 | 19481 ft | 378 kts | 259° |
| 2026-04-26 17:26 | -4.68835 | -41.85843 | 19046 ft | 375 kts | 259° |
| 2026-04-26 17:26 | -4.69343 | -41.88391 | 18627 ft | 371 kts | 259° |
| 2026-04-26 17:26 | -4.69845 | -41.90915 | 18187 ft | 369 kts | 259° |
| 2026-04-26 17:27 | -4.70344 | -41.93420 | 17771 ft | 364 kts | 259° |
| 2026-04-26 17:27 | -4.70831 | -41.95874 | 17322 ft | 360 kts | 259° |
| 2026-04-26 17:27 | -4.71317 | -41.98324 | 16855 ft | 357 kts | 259° |
| 2026-04-26 17:27 | -4.71801 | -42.00762 | 16442 ft | 353 kts | 259° |
| 2026-04-26 17:28 | -4.72280 | -42.03170 | 16034 ft | 350 kts | 259° |
| 2026-04-26 17:28 | -4.72753 | -42.05553 | 15628 ft | 346 kts | 259° |
| 2026-04-26 17:28 | -4.73223 | -42.07916 | 15225 ft | 343 kts | 259° |
| 2026-04-26 17:28 | -4.73688 | -42.10251 | 14830 ft | 340 kts | 259° |
| 2026-04-26 17:29 | -4.74147 | -42.12537 | 14436 ft | 337 kts | 259° |
| 2026-04-26 17:29 | -4.74459 | -42.14089 | 14175 ft | 336 kts | 259° |
| 2026-04-26 17:29 | -4.75064 | -42.17120 | 13655 ft | 333 kts | 259° |
| 2026-04-26 17:29 | -4.75515 | -42.19385 | 13238 ft | 330 kts | 258° |
| 2026-04-26 17:30 | -4.75962 | -42.21635 | 12849 ft | 327 kts | 258° |
| 2026-04-26 17:30 | -4.76404 | -42.23864 | 12468 ft | 324 kts | 258° |
| 2026-04-26 17:30 | -4.76842 | -42.26067 | 12090 ft | 321 kts | 258° |
| 2026-04-26 17:30 | -4.77275 | -42.28257 | 11713 ft | 319 kts | 258° |
| 2026-04-26 17:31 | -4.77705 | -42.30434 | 11334 ft | 317 kts | 258° |
| 2026-04-26 17:31 | -4.78129 | -42.32567 | 10964 ft | 315 kts | 258° |
| 2026-04-26 17:31 | -4.78553 | -42.34720 | 10590 ft | 314 kts | 258° |
| 2026-04-26 17:31 | -4.78976 | -42.36860 | 10219 ft | 312 kts | 257° |
| 2026-04-26 17:32 | -4.79398 | -42.38993 | 9849 ft | 312 kts | 257° |
| 2026-04-26 17:32 | -4.79819 | -42.41100 | 9608 ft | 305 kts | 258° |
| 2026-04-26 17:32 | -4.80235 | -42.43181 | 9217 ft | 304 kts | 257° |
| 2026-04-26 17:32 | -4.80647 | -42.45245 | 8907 ft | 300 kts | 258° |
| 2026-04-26 17:33 | -4.81058 | -42.47312 | 8493 ft | 301 kts | 257° |
| 2026-04-26 17:33 | -4.81464 | -42.49367 | 8141 ft | 299 kts | 257° |
| 2026-04-26 17:33 | -4.81867 | -42.51421 | 7731 ft | 299 kts | 257° |
| 2026-04-26 17:34 | -4.82648 | -42.55397 | 7021 ft | 281 kts | 257° |
| 2026-04-26 17:34 | -4.83020 | -42.57268 | 6691 ft | 273 kts | 257° |
| 2026-04-26 17:34 | -4.83384 | -42.59101 | 6367 ft | 264 kts | 257° |
| 2026-04-26 17:34 | -4.83738 | -42.60885 | 6037 ft | 257 kts | 257° |
| 2026-04-26 17:35 | -4.84081 | -42.62617 | 5720 ft | 250 kts | 257° |
| 2026-04-26 17:35 | -4.84416 | -42.64301 | 5426 ft | 244 kts | 257° |
| 2026-04-26 17:35 | -4.84750 | -42.65973 | 5119 ft | 244 kts | 257° |
| 2026-04-26 17:35 | -4.85082 | -42.67647 | 4825 ft | 244 kts | 257° |
| 2026-04-26 17:36 | -4.85412 | -42.69317 | 4521 ft | 244 kts | 257° |
| 2026-04-26 17:36 | -4.85741 | -42.70987 | 4209 ft | 244 kts | 257° |
| 2026-04-26 17:36 | -4.86065 | -42.72635 | 3924 ft | 243 kts | 257° |
| 2026-04-26 17:36 | -4.86394 | -42.74302 | 3621 ft | 243 kts | 257° |
| 2026-04-26 17:37 | -4.86722 | -42.75964 | 3315 ft | 243 kts | 258° |
| 2026-04-26 17:37 | -4.87050 | -42.77626 | 3016 ft | 243 kts | 258° |
| 2026-04-26 17:37 | -4.87379 | -42.79286 | 2715 ft | 243 kts | 257° |
| 2026-04-26 17:38 | -4.88121 | -42.82458 | 2106 ft | 221 kts | 238° |
| 2026-04-26 17:38 | -4.89110 | -42.83548 | 1838 ft | 206 kts | 208° |
| 2026-04-26 17:38 | -4.90359 | -42.83953 | 1834 ft | 178 kts | 182° |
| 2026-04-26 17:38 | -4.91528 | -42.83875 | 1767 ft | 158 kts | 172° |
| 2026-04-26 17:39 | -4.92588 | -42.83765 | 1734 ft | 146 kts | 171° |
| 2026-04-26 17:39 | -4.93570 | -42.83666 | 1698 ft | 137 kts | 172° |
| 2026-04-26 17:39 | -4.94508 | -42.83570 | 1666 ft | 137 kts | 171° |
| 2026-04-26 17:39 | -4.95452 | -42.83472 | 1643 ft | 135 kts | 171° |
| 2026-04-26 17:40 | -4.96406 | -42.83374 | 1513 ft | 137 kts | 171° |
| 2026-04-26 17:40 | -4.96724 | -42.83341 | 1455 ft | 136 kts | 171° |
| 2026-04-26 17:40 | -4.98286 | -42.83193 | 1228 ft | 136 kts | 172° |
| 2026-04-26 17:40 | -4.99224 | -42.83099 | 1056 ft | 134 kts | 172° |
| 2026-04-26 17:41 | -5.00150 | -42.82985 | 962 ft | 134 kts | 171° |
| 2026-04-26 17:41 | -5.01080 | -42.82862 | 902 ft | 136 kts | 172° |
| 2026-04-26 17:41 | -5.02035 | -42.82767 | 709 ft | 137 kts | 174° |
| 2026-04-26 17:41 | -5.02964 | -42.82688 | 555 ft | 136 kts | 171° |
| 2026-04-26 17:42 | -5.03897 | -42.82588 | 390 ft | 135 kts | 173° |
| 2026-04-26 17:42 | -5.04829 | -42.82494 | 242 ft | 133 kts | 173° |
| 2026-04-26 17:42 | -5.05701 | -42.82405 | 202 ft | 111 kts | 174° |
| 2026-04-26 17:42 | -5.06285 | -42.82344 | 211 ft | 45 kts | 174° |
| 2026-04-26 17:43 | -5.06376 | -42.82308 | 212 ft | 9 kts | 87° |
| 2026-04-26 17:43 | -5.06366 | -42.82246 | 215 ft | 8 kts | 92° |
| 2026-04-26 17:43 | -5.06368 | -42.82203 | 211 ft | 7 kts | 82° |
| 2026-04-26 17:43 | -5.06364 | -42.82167 | 213 ft | 3 kts | 84° |
| 2026-04-26 17:44 | -5.06363 | -42.82163 | 211 ft | 0 kts | 83° |